createdAt,value
2023-01-22T00:00:44.250Z,64.03
2023-01-22T00:05:52.622Z,64.59
2023-01-22T00:10:56.418Z,64.40
2023-01-22T00:16:00.401Z,64.75
2023-01-22T00:21:03.575Z,64.58
2023-01-22T00:26:12.697Z,64.18
2023-01-22T00:31:18.028Z,64.36
2023-01-22T00:36:22.670Z,64.27
2023-01-22T00:41:25.743Z,64.82
2023-01-22T00:46:29.020Z,65.35
2023-01-22T00:51:33.718Z,64.58
2023-01-22T00:56:36.825Z,64.20
2023-01-22T01:01:40.154Z,64.18
2023-01-22T01:06:43.182Z,63.60
2023-01-22T01:11:49.223Z,64.13
2023-01-22T01:16:53.603Z,65.48
2023-01-22T01:21:56.702Z,64.13
2023-01-22T01:26:59.790Z,63.43
2023-01-22T01:32:02.975Z,63.79
2023-01-22T01:37:06.000Z,62.96
2023-01-22T01:42:09.556Z,63.09
2023-01-22T01:47:33.158Z,63.80
2023-01-22T01:52:36.856Z,64.33
2023-01-22T01:57:42.057Z,63.82
2023-01-22T02:02:45.101Z,64.01
2023-01-22T02:07:48.685Z,64.34
2023-01-22T02:12:55.808Z,63.05
2023-01-22T02:18:01.292Z,63.34
2023-01-22T02:23:05.251Z,63.32
2023-01-22T02:28:08.690Z,63.21
2023-01-22T02:33:12.119Z,63.56
2023-01-22T02:38:18.103Z,63.61
2023-01-22T02:43:21.252Z,63.64
2023-01-22T02:48:24.326Z,64.02
2023-01-22T02:53:27.975Z,64.15
2023-01-22T02:58:31.236Z,63.65
2023-01-22T03:03:35.018Z,63.78
2023-01-22T03:08:38.027Z,63.47
2023-01-22T03:13:59.545Z,63.90
2023-01-22T03:19:22.489Z,63.81
2023-01-22T03:24:25.710Z,64.11
2023-01-22T03:29:29.110Z,63.78
2023-01-22T03:34:32.313Z,64.38
2023-01-22T03:39:35.578Z,63.55
2023-01-22T03:44:39.776Z,64.38
2023-01-22T03:49:42.910Z,64.27
2023-01-22T03:54:47.157Z,64.02
2023-01-22T03:59:50.244Z,64.74
2023-01-22T04:04:53.346Z,63.98
2023-01-22T04:09:56.371Z,63.73
2023-01-22T04:14:59.512Z,63.41
2023-01-22T04:20:03.217Z,64.34
2023-01-22T04:25:35.869Z,64.59
2023-01-22T04:30:39.510Z,64.39
2023-01-22T04:36:00.987Z,63.51
2023-01-22T04:41:04.482Z,64.32
2023-01-22T04:46:07.652Z,64.59
2023-01-22T04:51:11.267Z,64.56
2023-01-22T04:56:14.496Z,63.89
2023-01-22T05:01:20.142Z,64.11
2023-01-22T05:06:23.329Z,63.73
2023-01-22T05:11:26.442Z,62.94
2023-01-22T05:16:35.416Z,62.82
2023-01-22T05:21:38.561Z,62.73
2023-01-22T05:26:42.586Z,62.50
2023-01-22T05:31:59.396Z,61.70
2023-01-22T05:37:08.786Z,61.25
2023-01-22T05:42:16.279Z,61.27
2023-01-22T05:47:22.722Z,61.37
2023-01-22T05:52:44.281Z,60.58
2023-01-22T05:57:48.206Z,59.83
2023-01-22T06:03:01.252Z,58.80
2023-01-22T06:08:08.104Z,58.72
2023-01-22T06:13:23.169Z,58.24
2023-01-22T06:18:30.892Z,58.73
2023-01-22T06:23:35.074Z,57.71
2023-01-22T06:28:38.619Z,56.75
2023-01-22T06:33:42.560Z,55.99
2023-01-22T06:38:45.784Z,55.18
2023-01-22T06:43:54.129Z,55.57
2023-01-22T06:48:59.220Z,54.53
2023-01-22T06:54:02.586Z,54.22
2023-01-22T06:59:06.092Z,53.71
2023-01-22T07:04:09.138Z,53.11
2023-01-22T07:09:12.132Z,52.44
2023-01-22T07:14:15.500Z,51.76
2023-01-22T07:19:18.655Z,51.81
2023-01-22T07:24:21.717Z,51.80
2023-01-22T07:29:24.835Z,51.28
2023-01-22T07:34:27.926Z,51.14
2023-01-22T07:39:30.953Z,50.72
2023-01-22T07:44:34.122Z,50.33
2023-01-22T07:49:37.113Z,50.35
2023-01-22T07:54:40.146Z,50.61
2023-01-22T07:59:43.642Z,49.59
2023-01-22T08:04:46.646Z,49.37
2023-01-22T08:09:49.869Z,49.40
2023-01-22T08:14:52.833Z,49.19
2023-01-22T08:19:55.814Z,48.62
2023-01-22T08:24:58.823Z,49.50
2023-01-22T08:30:05.379Z,48.59
2023-01-22T08:35:09.511Z,48.39
2023-01-22T08:45:31.861Z,48.34
2023-01-22T08:50:34.925Z,47.90
2023-01-22T08:55:38.032Z,47.72
2023-01-22T09:00:41.132Z,47.87
2023-01-22T09:05:44.152Z,48.04
2023-01-22T09:10:47.298Z,48.09
2023-01-22T09:15:50.405Z,47.59
2023-01-22T09:20:53.401Z,47.58
2023-01-22T09:25:56.472Z,47.90
2023-01-22T09:30:59.621Z,48.10
2023-01-22T09:36:10.767Z,47.68
2023-01-22T09:41:20.355Z,48.58
2023-01-22T09:46:58.586Z,48.17
2023-01-22T09:52:05.239Z,48.31
2023-01-22T09:57:26.480Z,48.20
2023-01-22T10:02:38.389Z,48.18
2023-01-22T10:07:45.162Z,48.39
2023-01-22T10:13:13.349Z,47.93
2023-01-22T10:18:34.277Z,49.04
2023-01-22T10:23:37.208Z,49.00
2023-01-22T10:28:45.812Z,49.02
2023-01-22T10:33:56.604Z,49.24
2023-01-22T10:44:31.697Z,49.27
2023-01-22T10:49:34.802Z,49.51
2023-01-22T10:54:40.889Z,49.63
2023-01-22T10:59:58.559Z,50.15
2023-01-22T11:05:33.063Z,50.49
2023-01-22T11:10:50.671Z,51.25
2023-01-22T11:16:01.119Z,51.81
2023-01-22T11:21:19.082Z,52.36
2023-01-22T11:26:46.665Z,52.62
2023-01-22T11:32:03.602Z,52.88
2023-01-22T11:37:17.616Z,53.19
2023-01-22T11:42:31.887Z,53.79
2023-01-22T11:47:53.217Z,53.97
2023-01-22T11:53:33.440Z,54.26
2023-01-22T11:58:45.977Z,54.31
2023-01-22T12:03:49.042Z,54.74
2023-01-22T12:09:11.520Z,54.85
2023-01-22T12:14:39.558Z,55.20
2023-01-22T12:20:15.205Z,55.15
2023-01-22T12:26:00.227Z,56.10
2023-01-22T12:31:26.293Z,56.35
2023-01-22T12:36:31.454Z,56.55
2023-01-22T12:41:46.843Z,56.91
2023-01-22T12:47:18.676Z,57.00
2023-01-22T12:52:30.758Z,57.44
2023-01-22T12:57:42.109Z,57.39
2023-01-22T13:02:45.134Z,58.21
2023-01-22T13:07:49.812Z,58.01
2023-01-22T13:13:15.507Z,57.83
2023-01-22T13:18:31.843Z,58.91
2023-01-22T13:23:43.886Z,59.44
2023-01-22T13:29:19.111Z,59.96
2023-01-22T13:34:22.226Z,59.72
2023-01-22T13:39:35.570Z,61.31
2023-01-22T13:44:41.590Z,60.92
2023-01-22T13:49:44.773Z,61.19
2023-01-22T14:00:32.718Z,63.08
2023-01-22T14:05:36.566Z,62.68
2023-01-22T14:10:44.273Z,62.58
2023-01-22T14:15:56.814Z,63.14
2023-01-22T14:20:59.826Z,63.11
2023-01-22T14:26:06.045Z,63.16
2023-01-22T14:31:09.190Z,64.10
2023-01-22T14:36:12.280Z,63.77
2023-01-22T14:41:15.371Z,63.99
2023-01-22T14:46:18.554Z,64.16
2023-01-22T14:51:21.595Z,64.21
2023-01-22T14:56:24.753Z,64.03
2023-01-22T15:01:27.876Z,64.98
2023-01-22T15:06:31.064Z,64.74
2023-01-22T15:11:34.099Z,64.70
2023-01-22T15:16:38.648Z,64.91
2023-01-22T15:21:41.814Z,64.86
2023-01-22T15:26:44.884Z,65.28
2023-01-22T15:31:47.988Z,66.04
2023-01-22T15:36:51.187Z,65.99
2023-01-22T15:41:54.178Z,65.94
2023-01-22T15:47:01.353Z,66.15
2023-01-22T15:52:05.208Z,65.79
2023-01-22T15:57:08.219Z,65.62
2023-01-22T16:02:11.860Z,65.87
2023-01-22T16:07:14.862Z,65.70
2023-01-22T16:12:18.679Z,66.27
2023-01-22T16:17:21.715Z,66.21
2023-01-22T16:22:25.561Z,66.43
2023-01-22T16:27:28.538Z,66.10
2023-01-22T16:32:31.788Z,65.97
2023-01-22T16:37:34.779Z,65.50
2023-01-22T16:42:37.932Z,65.58
2023-01-22T16:47:41.054Z,65.33
2023-01-22T16:52:44.115Z,65.14
2023-01-22T16:57:47.143Z,65.39
2023-01-22T17:02:50.269Z,65.04
2023-01-22T17:07:53.340Z,64.83
2023-01-22T17:12:56.328Z,65.23
2023-01-22T17:17:59.955Z,65.40
2023-01-22T17:23:03.187Z,64.58
2023-01-22T17:28:06.252Z,64.62
2023-01-22T17:33:09.321Z,64.34
2023-01-22T17:38:13.035Z,64.08
2023-01-22T17:43:16.258Z,64.14
2023-01-22T17:48:19.255Z,63.88
2023-01-22T17:53:22.299Z,63.77
2023-01-22T17:58:25.272Z,63.62
2023-01-22T18:03:28.243Z,63.07
2023-01-22T18:08:33.402Z,63.30
2023-01-22T18:13:38.469Z,62.93
2023-01-22T18:18:42.543Z,63.27
2023-01-22T18:23:48.685Z,63.26
2023-01-22T18:28:57.104Z,63.18
2023-01-22T18:34:03.223Z,63.28
2023-01-22T18:39:18.473Z,62.90
2023-01-22T18:44:22.972Z,63.20
2023-01-22T18:49:28.319Z,62.88
2023-01-22T18:54:34.018Z,62.57
2023-01-22T18:59:37.116Z,62.82
2023-01-22T19:04:40.080Z,62.72
2023-01-22T19:09:43.194Z,62.96
2023-01-22T19:14:47.382Z,62.61
2023-01-22T19:19:50.660Z,63.13
2023-01-22T19:24:53.849Z,62.40
2023-01-22T19:29:56.842Z,62.96
2023-01-22T19:34:59.867Z,62.81
2023-01-22T19:40:03.269Z,63.41
2023-01-22T19:45:06.824Z,63.10
2023-01-22T19:50:10.462Z,63.01
2023-01-22T19:55:13.543Z,62.65
2023-01-22T20:00:17.096Z,62.14
2023-01-22T20:05:20.994Z,62.03
2023-01-22T20:10:24.158Z,62.58
2023-01-22T20:15:29.874Z,63.08
2023-01-22T20:20:33.720Z,62.95
2023-01-22T20:25:38.953Z,62.95
2023-01-22T20:30:42.555Z,63.24
2023-01-22T20:35:45.579Z,63.24
2023-01-22T20:40:48.560Z,62.79
2023-01-22T20:46:02.972Z,63.45
2023-01-22T20:51:15.678Z,63.21
2023-01-22T20:56:29.197Z,62.64
2023-01-22T21:01:33.107Z,63.35
2023-01-22T21:06:36.853Z,63.97
2023-01-22T21:11:41.289Z,63.23
2023-01-22T21:16:50.859Z,62.69
2023-01-22T21:21:57.484Z,63.96
2023-01-22T21:27:00.545Z,63.37
2023-01-22T21:32:03.778Z,63.47
2023-01-22T21:37:06.907Z,64.03
2023-01-22T21:42:28.694Z,63.50
2023-01-22T21:47:31.791Z,63.81
2023-01-22T21:52:34.945Z,63.62
2023-01-22T21:57:38.847Z,64.29
2023-01-22T22:02:41.927Z,64.21
2023-01-22T22:07:45.197Z,64.36
2023-01-22T22:12:48.213Z,64.88
2023-01-22T22:17:51.382Z,65.00
2023-01-22T22:22:55.714Z,64.46
2023-01-22T22:28:00.046Z,63.93
2023-01-22T22:33:03.055Z,64.62
2023-01-22T22:38:06.499Z,64.89
2023-01-22T22:43:09.574Z,64.67
2023-01-22T22:48:12.566Z,64.63
2023-01-22T22:53:15.583Z,64.45
2023-01-22T22:58:19.133Z,64.81
2023-01-22T23:03:22.172Z,64.12
2023-01-22T23:08:25.235Z,65.16
2023-01-22T23:13:28.343Z,64.53
2023-01-22T23:18:33.629Z,65.27
2023-01-22T23:23:37.167Z,65.40
2023-01-22T23:28:40.695Z,65.01
2023-01-22T23:33:44.522Z,64.98
2023-01-22T23:38:47.751Z,65.24
2023-01-22T23:43:51.347Z,65.11
2023-01-22T23:48:55.534Z,65.79
2023-01-22T23:53:59.069Z,65.60
2023-01-22T23:59:02.099Z,66.59
